MET'MAP v2.0
soon released !

Expected late october,
this new version will be
more efficient, smarter,
and hosted on a brand new
server x3 powerfull...
...and still free !


Not compatible ?
Try the mobile version !

LOG IN : | Subscribe | Disclaimer | Who is Orbifly ? |
ICAO code :

TAF - LICZ Sigonella (Mil) Catania - 25 Feb 2020 01:06 UTC - Data Source NOAA   


- Airport Elevation : 79 ft
- IATA code : NSY
- No reported NOTAMs.


LICZ - Sigonella (Mil) Catania

Latest METAR recorded : 2015/08/11 07:55 LICZ 110755Z 28006KT 9999 SCT030 BKN090 29/24 Q1011 RMK BKN VIS MIN 9999 WIND THR28 28005KT A2987 BLU
TAF TAF LICZ
Valid from the 25 at 00:00 until the 26 at 00:00 UTC


242300Z 2500/2524 VRB03KT CAVOK
BECMG 2511/2513 26008KT

Source NOAA


MET'MAP, your aeronautical weather chart ! - Copyright ORBIFLY December 2007

Programming & Development : Alexandra Zaïnal
Co-Developer : Marc-Olivier Méhu
Technical & hardware support : Manuel Goepfert
Concept & Financing : Baudouin d'Aumeries